createdAt,value
2023-01-13T00:04:20.828Z,1005.4
2023-01-13T00:09:20.764Z,1005.3
2023-01-13T00:14:20.719Z,1005.2
2023-01-13T00:19:20.623Z,1005.2
2023-01-13T00:24:20.561Z,1005.1
2023-01-13T00:29:20.481Z,1005.2
2023-01-13T00:34:20.428Z,1005.0
2023-01-13T00:44:20.311Z,1005.3
2023-01-13T00:49:20.211Z,1005.3
2023-01-13T00:54:20.120Z,1005.2
2023-01-13T00:59:22.014Z,1005.2
2023-01-13T01:04:19.977Z,1005.2
2023-01-13T01:09:19.873Z,1005.2
2023-01-13T01:14:19.854Z,1005.2
2023-01-13T01:19:19.800Z,1005.2
2023-01-13T01:24:19.623Z,1005.2
2023-01-13T01:29:19.591Z,1005.2
2023-01-13T01:34:19.529Z,1005.1
2023-01-13T01:39:19.487Z,1005.2
2023-01-13T01:44:19.350Z,1005.2
2023-01-13T01:49:19.270Z,1005.2
2023-01-13T01:54:19.300Z,1005.1
2023-01-13T02:04:19.143Z,1005.2
2023-01-13T02:09:19.000Z,1005.2
2023-01-13T02:14:18.963Z,1005.4
2023-01-13T02:19:18.865Z,1005.4
2023-01-13T02:24:18.859Z,1005.4
2023-01-13T02:29:18.727Z,1005.4
2023-01-13T02:34:18.651Z,1005.3
2023-01-13T02:39:18.560Z,1005.4
2023-01-13T02:44:18.435Z,1005.4
2023-01-13T02:49:18.340Z,1005.4
2023-01-13T02:59:18.167Z,1005.3
2023-01-13T03:04:20.702Z,1005.4
2023-01-13T03:09:18.059Z,1005.5
2023-01-13T03:14:18.030Z,1005.5
2023-01-13T03:19:17.941Z,1005.6
2023-01-13T03:24:17.892Z,1005.5
2023-01-13T03:29:17.822Z,1005.5
2023-01-13T03:34:17.745Z,1005.5
2023-01-13T03:39:17.657Z,1005.6
2023-01-13T03:49:17.523Z,1005.6
2023-01-13T03:54:19.472Z,1005.7
2023-01-13T03:59:17.376Z,1005.8
2023-01-13T04:04:17.394Z,1005.8
2023-01-13T04:09:17.298Z,1005.9
2023-01-13T04:14:17.251Z,1006.0
2023-01-13T04:19:17.175Z,1005.9
2023-01-13T04:24:17.125Z,1005.9
2023-01-13T04:29:17.028Z,1005.9
2023-01-13T04:34:17.020Z,1006.0
2023-01-13T04:39:19.010Z,1006.1
2023-01-13T04:44:16.962Z,1006.0
2023-01-13T04:49:16.963Z,1006.0
2023-01-13T04:59:16.860Z,1006.2
2023-01-13T05:04:16.987Z,1006.3
2023-01-13T05:09:16.815Z,1006.3
2023-01-13T05:14:16.787Z,1006.5
2023-01-13T05:19:16.705Z,1006.7
2023-01-13T05:24:18.696Z,1006.9
2023-01-13T05:29:16.639Z,1006.8
2023-01-13T05:34:16.603Z,1006.8
2023-01-13T05:39:16.541Z,1006.6
2023-01-13T05:44:16.550Z,1006.7
2023-01-13T05:49:16.458Z,1006.6
2023-01-13T05:54:16.378Z,1006.7
2023-01-13T05:59:16.308Z,1006.8
2023-01-13T06:04:16.312Z,1006.9
2023-01-13T06:09:16.111Z,1007.0
2023-01-13T06:14:16.093Z,1006.9
2023-01-13T06:19:16.052Z,1006.9
2023-01-13T06:24:15.962Z,1007.1
2023-01-13T06:29:15.910Z,1007.1
2023-01-13T06:34:17.918Z,1007.2
2023-01-13T06:44:15.664Z,1007.4
2023-01-13T06:49:15.588Z,1007.5
2023-01-13T06:54:15.515Z,1007.6
2023-01-13T06:59:15.417Z,1007.6
2023-01-13T07:04:15.454Z,1007.7
2023-01-13T07:09:15.330Z,1007.9
2023-01-13T07:14:15.304Z,1007.9
2023-01-13T07:19:15.207Z,1008.0
2023-01-13T07:29:15.077Z,1008.2
2023-01-13T07:34:15.046Z,1008.3
2023-01-13T07:39:14.875Z,1008.4
2023-01-13T07:44:14.774Z,1008.5
2023-01-13T07:49:16.722Z,1008.6
2023-01-13T07:54:14.673Z,1008.6
2023-01-13T07:59:14.616Z,1008.8
2023-01-13T08:04:14.579Z,1008.9
2023-01-13T08:09:14.524Z,1009.0
2023-01-13T08:14:14.471Z,1009.0
2023-01-13T08:19:14.421Z,1009.1
2023-01-13T08:24:14.403Z,1009.1
2023-01-13T08:29:15.159Z,1009.2
2023-01-13T08:34:14.267Z,1009.2
2023-01-13T08:39:14.139Z,1009.3
2023-01-13T08:44:14.124Z,1009.5
2023-01-13T08:49:14.052Z,1009.4
2023-01-13T08:54:14.388Z,1009.6
2023-01-13T08:59:14.011Z,1009.6
2023-01-13T09:04:13.999Z,1009.8
2023-01-13T09:09:13.962Z,1009.9
2023-01-13T09:14:13.909Z,1009.9
2023-01-13T09:19:13.865Z,1010.0
2023-01-13T09:29:13.762Z,1010.2
2023-01-13T09:39:13.705Z,1010.3
2023-01-13T09:44:14.312Z,1010.3
2023-01-13T09:49:13.775Z,1010.3
2023-01-13T09:54:13.558Z,1010.4
2023-01-13T09:59:13.468Z,1010.7
2023-01-13T10:04:13.505Z,1010.7
2023-01-13T10:29:13.355Z,1010.9
2023-01-13T10:34:13.270Z,1011.1
2023-01-13T10:39:13.352Z,1011.2
2023-01-13T10:44:13.500Z,1011.3
2023-01-13T10:49:13.331Z,1011.4
2023-01-13T10:54:13.280Z,1011.5
2023-01-13T10:59:13.236Z,1011.6
2023-01-13T11:04:15.781Z,1011.6
2023-01-13T11:09:13.353Z,1011.6
2023-01-13T11:14:13.280Z,1011.7
2023-01-13T11:19:13.309Z,1011.8
2023-01-13T11:24:13.371Z,1012.0
2023-01-13T11:29:13.405Z,1012.1
2023-01-13T11:34:13.390Z,1012.0
2023-01-13T11:39:15.545Z,1012.1
2023-01-13T11:44:15.999Z,1012.0
2023-01-13T11:49:15.530Z,1011.9
2023-01-13T11:54:13.528Z,1012.1
2023-01-13T11:59:13.622Z,1012.0
2023-01-13T12:04:13.606Z,1012.1
2023-01-13T12:09:13.666Z,1012.0
2023-01-13T12:14:13.693Z,1012.2
2023-01-13T12:19:13.711Z,1012.4
2023-01-13T12:24:13.702Z,1012.6
2023-01-13T12:29:13.737Z,1012.6
2023-01-13T12:34:13.779Z,1012.6
2023-01-13T12:39:13.809Z,1012.6
2023-01-13T12:44:13.919Z,1012.5
2023-01-13T12:49:13.838Z,1012.6
2023-01-13T12:54:13.862Z,1012.5
2023-01-13T12:59:13.909Z,1012.5
2023-01-13T13:04:13.867Z,1012.6
2023-01-13T13:09:15.907Z,1012.6
2023-01-13T13:14:13.934Z,1012.7
2023-01-13T13:19:13.937Z,1012.7
2023-01-13T13:24:13.991Z,1012.7
2023-01-13T13:29:14.067Z,1012.8
2023-01-13T13:34:14.097Z,1012.9
2023-01-13T13:39:14.220Z,1012.9
2023-01-13T13:44:14.228Z,1013.1
2023-01-13T13:49:14.416Z,1013.1
2023-01-13T13:54:14.370Z,1013.4
2023-01-13T13:59:14.449Z,1013.3
2023-01-13T14:04:14.515Z,1013.4
2023-01-13T14:09:14.652Z,1013.5
2023-01-13T14:14:14.620Z,1013.6
2023-01-13T14:24:14.729Z,1013.9
2023-01-13T14:29:14.755Z,1013.9
2023-01-13T14:34:31.487Z,1014.0
2023-01-13T14:39:14.929Z,1014.1
2023-01-13T14:44:14.994Z,1014.1
2023-01-13T14:49:17.068Z,1014.2
2023-01-13T14:54:15.096Z,1014.2
2023-01-13T14:59:15.185Z,1014.2
2023-01-13T15:04:15.240Z,1014.3
2023-01-13T15:09:15.301Z,1014.3
2023-01-13T15:14:17.330Z,1014.4
2023-01-13T15:19:15.386Z,1014.4
2023-01-13T15:24:15.422Z,1014.5
2023-01-13T15:29:15.457Z,1014.6
2023-01-13T15:34:15.515Z,1014.6
2023-01-13T15:39:15.581Z,1014.7
2023-01-13T15:44:15.576Z,1014.7
2023-01-13T15:49:15.592Z,1014.8
2023-01-13T15:54:17.619Z,1015.0
2023-01-13T15:59:15.598Z,1015.0
2023-01-13T16:04:15.623Z,1015.1
2023-01-13T16:09:15.653Z,1015.1
2023-01-13T16:14:15.703Z,1015.1
2023-01-13T16:19:15.733Z,1015.2
2023-01-13T16:24:15.703Z,1015.3
2023-01-13T16:29:15.759Z,1015.3
2023-01-13T16:34:15.692Z,1015.3
2023-01-13T16:39:17.738Z,1015.3
2023-01-13T16:49:15.628Z,1015.5
2023-01-13T16:54:15.584Z,1015.5
2023-01-13T16:59:15.531Z,1015.6
2023-01-13T17:04:17.513Z,1015.5
2023-01-13T17:09:15.519Z,1015.6
2023-01-13T17:14:18.810Z,1015.6
2023-01-13T17:19:15.628Z,1015.7
2023-01-13T17:24:15.412Z,1015.7
2023-01-13T17:29:15.389Z,1015.7
2023-01-13T17:34:15.317Z,1015.7
2023-01-13T17:39:17.782Z,1015.6
2023-01-13T17:44:15.220Z,1015.6
2023-01-13T17:49:15.158Z,1015.4
2023-01-13T17:59:15.084Z,1015.5
2023-01-13T18:04:17.101Z,1015.6
2023-01-13T18:14:17.406Z,1015.7
2023-01-13T18:19:16.830Z,1015.8
2023-01-13T18:24:14.720Z,1015.7
2023-01-13T18:29:16.661Z,1015.6
2023-01-13T18:34:14.511Z,1015.8
2023-01-13T18:39:14.456Z,1015.8
2023-01-13T18:49:14.294Z,1016.0
2023-01-13T18:54:16.216Z,1015.9
2023-01-13T18:59:14.245Z,1016.1
2023-01-13T19:04:14.134Z,1016.2
2023-01-13T19:09:14.093Z,1016.3
2023-01-13T19:14:14.023Z,1016.4
2023-01-13T19:19:14.048Z,1016.4
2023-01-13T19:24:16.028Z,1016.5
2023-01-13T19:29:14.000Z,1016.3
2023-01-13T19:34:13.964Z,1016.2
2023-01-13T19:39:13.909Z,1016.2
2023-01-13T19:44:14.884Z,1016.0
2023-01-13T19:49:13.838Z,1015.9
2023-01-13T19:54:13.714Z,1016.0
2023-01-13T19:59:15.660Z,1015.8
2023-01-13T20:04:13.575Z,1015.8
2023-01-13T20:09:13.553Z,1015.7
2023-01-13T20:14:15.937Z,1015.7
2023-01-13T20:19:13.390Z,1015.7
2023-01-13T20:24:13.296Z,1015.7
2023-01-13T20:29:13.422Z,1015.6
2023-01-13T20:34:13.109Z,1015.4
2023-01-13T20:39:17.085Z,1015.3
2023-01-13T20:44:12.990Z,1015.2
2023-01-13T20:49:12.878Z,1015.3
2023-01-13T20:54:12.752Z,1015.1
2023-01-13T20:59:12.635Z,1015.0
2023-01-13T21:04:12.554Z,1015.0
2023-01-13T21:09:12.445Z,1014.9
2023-01-13T21:14:12.304Z,1014.9
2023-01-13T21:19:12.231Z,1015.0
2023-01-13T21:24:12.109Z,1015.1
2023-01-13T21:29:12.019Z,1015.1
2023-01-13T21:34:11.868Z,1015.0
2023-01-13T21:39:11.863Z,1014.9
2023-01-13T21:44:11.663Z,1014.9
2023-01-13T21:49:11.653Z,1014.8
2023-01-13T21:54:11.552Z,1014.8
2023-01-13T21:59:11.414Z,1014.6
2023-01-13T22:04:11.335Z,1014.7
2023-01-13T22:09:11.421Z,1014.6
2023-01-13T22:14:11.209Z,1014.4
2023-01-13T22:19:11.143Z,1014.2
2023-01-13T22:24:11.119Z,1014.2
2023-01-13T22:29:11.028Z,1014.0
2023-01-13T22:34:10.962Z,1013.9
2023-01-13T22:39:10.917Z,1013.8
2023-01-13T22:49:10.884Z,1013.5
2023-01-13T22:54:10.785Z,1013.5
2023-01-13T22:59:10.747Z,1013.3
2023-01-13T23:04:10.803Z,1013.2
2023-01-13T23:09:10.727Z,1013.2
2023-01-13T23:14:10.671Z,1013.0
2023-01-13T23:24:10.653Z,1012.7
2023-01-13T23:29:10.630Z,1012.6
2023-01-13T23:34:10.624Z,1012.5
2023-01-13T23:39:10.658Z,1012.5
2023-01-13T23:44:10.669Z,1012.3
2023-01-13T23:49:10.648Z,1012.4
2023-01-13T23:54:10.642Z,1012.3
2023-01-13T23:59:12.654Z,1012.1
